createdAt,value
2019-06-01T00:00:12.046Z,102228.64
2019-06-01T00:02:40.864Z,102235.03
2019-06-01T00:05:09.451Z,102228.70
2019-06-01T00:07:38.773Z,102221.47
2019-06-01T00:10:08.362Z,102227.77
2019-06-01T00:12:37.511Z,102219.16
2019-06-01T00:15:07.346Z,102217.80
2019-06-01T00:17:36.506Z,102221.47
2019-06-01T00:20:05.930Z,102219.06
2019-06-01T00:22:35.097Z,102220.13
2019-06-01T00:25:05.609Z,102224.03
2019-06-01T00:27:34.772Z,102221.94
2019-06-01T00:30:06.001Z,102220.67
2019-06-01T00:32:35.159Z,102217.01
2019-06-01T00:35:05.653Z,102218.03
2019-06-01T00:37:34.830Z,102214.64
2019-06-01T00:40:07.934Z,102219.17
2019-06-01T00:42:37.066Z,102203.14
2019-06-01T00:45:08.225Z,102203.37
2019-06-01T00:47:37.425Z,102205.30
2019-06-01T00:50:07.324Z,102205.84
2019-06-01T00:52:36.599Z,102203.36
2019-06-01T00:55:06.381Z,102200.56
2019-06-01T00:57:35.872Z,102207.26
2019-06-01T01:00:08.849Z,102199.91
2019-06-01T01:02:38.021Z,102203.37
2019-06-01T01:05:12.034Z,102196.50
2019-06-01T01:07:41.204Z,102204.07
2019-06-01T01:10:11.406Z,102204.07
2019-06-01T01:12:58.862Z,102195.94
2019-06-01T01:15:28.020Z,102206.25
2019-06-01T01:17:57.461Z,102202.19
2019-06-01T01:20:26.703Z,102193.14
2019-06-01T01:22:56.474Z,102194.05
2019-06-01T01:25:24.859Z,102193.14
2019-06-01T01:27:54.815Z,102199.52
2019-06-01T01:30:24.242Z,102198.25
2019-06-01T01:32:53.660Z,102199.78
2019-06-01T01:35:22.926Z,102197.13
2019-06-01T01:37:53.921Z,102198.95
2019-06-01T01:40:23.030Z,102198.00
2019-06-01T01:42:52.849Z,102198.00
2019-06-01T01:45:22.505Z,102201.92
2019-06-01T01:47:52.860Z,102198.73
2019-06-01T01:50:24.397Z,102203.20
2019-06-01T01:52:54.709Z,102195.46
2019-06-01T01:55:24.011Z,102191.34
2019-06-01T01:57:53.450Z,102200.66
2019-06-01T02:00:40.110Z,102196.81
2019-06-01T02:03:10.533Z,102189.95
2019-06-01T02:05:39.686Z,102192.66
2019-06-01T02:08:09.079Z,102197.13
2019-06-01T02:10:38.423Z,102193.94
2019-06-01T02:13:07.760Z,102197.91
2019-06-01T02:15:40.082Z,102192.48
2019-06-01T02:18:09.358Z,102190.26
2019-06-01T02:20:38.575Z,102194.41
2019-06-01T02:23:07.736Z,102199.84
2019-06-01T02:25:37.065Z,102201.28
2019-06-01T02:28:06.289Z,102200.88
2019-06-01T02:30:35.449Z,102201.84
2019-06-01T02:33:04.886Z,102203.77
2019-06-01T02:35:34.217Z,102207.44
2019-06-01T02:38:05.476Z,102199.48
2019-06-01T02:40:34.351Z,102201.76
2019-06-01T02:43:05.930Z,102205.99
2019-06-01T02:45:34.561Z,102198.95
2019-06-01T02:48:04.486Z,102199.13
2019-06-01T02:50:35.131Z,102206.47
2019-06-01T02:53:04.320Z,102209.18
2019-06-01T02:55:33.487Z,102208.22
2019-06-01T02:58:02.665Z,102211.72
2019-06-01T03:00:56.597Z,102215.22
2019-06-01T03:03:25.762Z,102211.02
2019-06-01T03:05:57.360Z,102208.84
2019-06-01T03:08:27.227Z,102207.48
2019-06-01T03:10:57.611Z,102203.19
2019-06-01T03:13:28.563Z,102214.20
2019-06-01T03:16:00.292Z,102213.02
2019-06-01T03:18:31.017Z,102211.34
2019-06-01T03:21:01.663Z,102206.02
2019-06-01T03:23:31.793Z,102200.36
2019-06-01T03:26:04.194Z,102207.27
2019-06-01T03:28:36.733Z,102206.08
2019-06-01T03:31:08.223Z,102208.00
2019-06-01T03:33:36.772Z,102202.27
2019-06-01T03:36:06.918Z,102201.00
2019-06-01T03:38:36.194Z,102208.89
2019-06-01T03:41:06.326Z,102211.60
2019-06-01T03:43:35.512Z,102220.69
2019-06-01T03:46:06.645Z,102212.56
2019-06-01T03:48:35.890Z,102222.44
2019-06-01T03:51:05.723Z,102225.15
2019-06-01T03:53:34.909Z,102223.40
2019-06-01T03:56:04.959Z,102220.29
2019-06-01T03:58:34.175Z,102216.39
2019-06-01T04:01:03.332Z,102215.64
2019-06-01T04:03:32.494Z,102221.06
2019-06-01T04:06:03.347Z,102217.39
2019-06-01T04:08:32.549Z,102210.14
2019-06-01T04:11:01.744Z,102210.49
2019-06-01T04:13:30.927Z,102207.30
2019-06-01T04:16:00.101Z,102206.51
2019-06-01T04:18:48.624Z,102206.43
2019-06-01T04:21:17.788Z,102205.47
2019-06-01T04:23:46.946Z,102210.81
2019-06-01T04:26:16.142Z,102206.18
2019-06-01T04:28:45.294Z,102209.60
2019-06-01T04:31:14.459Z,102202.75
2019-06-01T04:33:43.656Z,102201.22
2019-06-01T04:36:13.127Z,102197.39
2019-06-01T04:38:42.363Z,102209.45
2019-06-01T04:41:12.058Z,102214.31
2019-06-01T04:43:41.303Z,102206.58
2019-06-01T04:46:10.754Z,102208.55
2019-06-01T04:48:39.945Z,102216.52
2019-06-01T04:51:09.097Z,102205.91
2019-06-01T04:53:38.259Z,102208.84
2019-06-01T04:56:07.441Z,102219.55
2019-06-01T04:58:36.614Z,102213.34
2019-06-01T05:01:06.889Z,102221.39
2019-06-01T05:03:36.493Z,102218.76
2019-06-01T05:06:07.078Z,102214.22
2019-06-01T05:08:36.372Z,102215.09
2019-06-01T05:11:07.059Z,102213.96
2019-06-01T05:13:36.483Z,102211.50
2019-06-01T05:16:05.935Z,102213.48
2019-06-01T05:18:35.101Z,102212.52
2019-06-01T05:21:04.294Z,102216.16
2019-06-01T05:23:33.446Z,102199.53
2019-06-01T05:26:02.671Z,102209.20
2019-06-01T05:28:31.844Z,102220.75
2019-06-01T05:31:01.013Z,102212.83
2019-06-01T05:33:37.347Z,102221.88
2019-06-01T05:36:01.095Z,102219.72
2019-06-01T05:38:30.384Z,102211.05
2019-06-01T05:40:59.549Z,102211.08
2019-06-01T05:43:28.715Z,102213.29
2019-06-01T05:45:57.904Z,102211.48
2019-06-01T05:48:30.543Z,102210.88
2019-06-01T05:50:58.071Z,102208.39
2019-06-01T05:53:27.232Z,102213.34
2019-06-01T05:55:56.501Z,102214.52
2019-06-01T05:58:25.662Z,102205.84
2019-06-01T06:00:56.652Z,102212.07
2019-06-01T06:03:39.501Z,102220.42
2019-06-01T06:05:58.374Z,102218.14
2019-06-01T06:08:27.535Z,102213.09
2019-06-01T06:10:57.000Z,102211.84
2019-06-01T06:13:26.165Z,102216.73
2019-06-01T06:15:55.328Z,102216.63
2019-06-01T06:18:24.560Z,102215.69
2019-06-01T06:20:53.732Z,102211.60
2019-06-01T06:23:22.909Z,102207.52
2019-06-01T06:25:52.204Z,102205.34
2019-06-01T06:28:21.375Z,102215.23
2019-06-01T06:30:50.550Z,102214.25
2019-06-01T06:33:19.745Z,102213.00
2019-06-01T06:35:48.900Z,102211.44
2019-06-01T06:38:18.055Z,102219.59
2019-06-01T06:40:47.331Z,102208.30
2019-06-01T06:43:21.306Z,102213.75
2019-06-01T06:45:47.455Z,102208.07
2019-06-01T06:48:16.932Z,102210.31
2019-06-01T06:50:46.179Z,102205.32
2019-06-01T06:53:25.395Z,102208.98
2019-06-01T06:55:46.257Z,102213.08
2019-06-01T06:58:15.976Z,102214.58
2019-06-01T07:00:45.182Z,102214.88
2019-06-01T07:03:14.399Z,102216.86
2019-06-01T07:05:43.569Z,102225.95
2019-06-01T07:08:12.840Z,102224.22
2019-06-01T07:10:42.019Z,102221.53
2019-06-01T07:13:11.194Z,102226.24
2019-06-01T07:15:40.350Z,102233.45
2019-06-01T07:18:10.531Z,102231.47
2019-06-01T07:20:39.727Z,102230.39
2019-06-01T07:23:08.875Z,102224.66
2019-06-01T07:25:38.175Z,102218.67
2019-06-01T07:28:07.339Z,102227.55
2019-06-01T07:30:49.555Z,102230.71
2019-06-01T07:33:07.732Z,102226.16
2019-06-01T07:35:36.948Z,102234.55
2019-06-01T07:38:06.112Z,102228.12
2019-06-01T07:40:35.406Z,102237.44
2019-06-01T07:43:06.111Z,102231.52
2019-06-01T07:45:35.440Z,102231.19
2019-06-01T07:48:04.701Z,102229.77
2019-06-01T07:50:33.855Z,102231.34
2019-06-01T07:53:03.112Z,102228.55
2019-06-01T07:55:32.291Z,102224.46
2019-06-01T07:58:01.460Z,102227.30
2019-06-01T08:00:31.016Z,102227.28
2019-06-01T08:03:00.191Z,102227.93
2019-06-01T08:05:30.181Z,102229.19
2019-06-01T08:07:59.392Z,102229.02
2019-06-01T08:10:29.630Z,102225.88
2019-06-01T08:12:58.941Z,102223.37
2019-06-01T08:15:28.349Z,102222.91
2019-06-01T08:17:57.824Z,102225.02
2019-06-01T08:20:26.323Z,102224.11
2019-06-01T08:22:55.550Z,102227.16
2019-06-01T08:25:24.718Z,102218.77
2019-06-01T08:27:53.263Z,102231.06
2019-06-01T08:30:22.611Z,102224.70
2019-06-01T08:32:51.193Z,102222.91
2019-06-01T08:35:20.358Z,102219.14
2019-06-01T08:37:49.573Z,102213.41
2019-06-01T08:40:19.052Z,102210.02
2019-06-01T08:42:48.308Z,102208.77
2019-06-01T08:45:17.477Z,102210.16
2019-06-01T08:47:46.649Z,102219.33
2019-06-01T08:50:15.982Z,102212.76
2019-06-01T08:52:44.454Z,102219.34
2019-06-01T08:55:13.566Z,102221.53
2019-06-01T08:57:42.737Z,102209.71
2019-06-01T09:00:12.552Z,102213.75
2019-06-01T09:02:41.706Z,102211.50
2019-06-01T09:05:23.978Z,102218.69
2019-06-01T09:07:42.186Z,102204.70
2019-06-01T09:10:11.863Z,102203.75
2019-06-01T09:12:41.028Z,102209.16
2019-06-01T09:15:10.733Z,102208.63
2019-06-01T09:17:39.918Z,102203.39
2019-06-01T09:20:09.476Z,102205.48
2019-06-01T09:22:38.638Z,102194.36
2019-06-01T09:25:08.303Z,102206.09
2019-06-01T09:27:37.473Z,102203.50
2019-06-01T09:30:09.706Z,102198.64
2019-06-01T09:32:38.895Z,102205.46
2019-06-01T09:35:08.230Z,102211.62
2019-06-01T09:37:36.816Z,102208.37
2019-06-01T09:40:06.904Z,102212.86
2019-06-01T09:42:37.522Z,102210.25
2019-06-01T09:45:07.250Z,102207.14
2019-06-01T09:47:37.674Z,102207.85
2019-06-01T09:50:08.165Z,102211.59
2019-06-01T09:52:37.809Z,102213.94
2019-06-01T09:55:08.436Z,102211.53
2019-06-01T09:57:38.384Z,102215.05
2019-06-01T10:00:10.032Z,102217.27
2019-06-01T10:02:39.538Z,102217.50
2019-06-01T10:05:08.857Z,102215.42
2019-06-01T10:07:39.092Z,102211.05
2019-06-01T10:10:08.672Z,102213.30
2019-06-01T10:12:38.318Z,102213.41
2019-06-01T10:15:10.939Z,102209.52
2019-06-01T10:17:42.984Z,102214.01
2019-06-01T10:20:12.619Z,102216.06
2019-06-01T10:22:42.077Z,102215.91
2019-06-01T10:25:11.413Z,102216.56
2019-06-01T10:27:40.219Z,102221.14
2019-06-01T10:30:11.183Z,102219.05
2019-06-01T10:32:40.535Z,102210.09
2019-06-01T10:35:10.325Z,102207.66
2019-06-01T10:37:41.710Z,102203.63
2019-06-01T10:40:11.187Z,102200.65
2019-06-01T10:42:39.928Z,102205.84
2019-06-01T10:45:09.486Z,102208.96
2019-06-01T10:47:40.113Z,102198.56
2019-06-01T10:50:10.072Z,102206.73
2019-06-01T10:52:40.393Z,102206.48
2019-06-01T10:55:09.956Z,102202.73
2019-06-01T10:57:40.517Z,102203.16
2019-06-01T11:00:12.287Z,102204.21
2019-06-01T11:02:41.523Z,102195.52
2019-06-01T11:05:09.970Z,102199.81
2019-06-01T11:07:39.237Z,102200.07
2019-06-01T11:10:08.117Z,102197.98
2019-06-01T11:12:37.215Z,102208.61
2019-06-01T11:15:07.628Z,102194.64
2019-06-01T11:17:37.097Z,102193.04
2019-06-01T11:20:07.075Z,102195.41
2019-06-01T11:22:37.357Z,102196.51
2019-06-01T11:25:07.613Z,102194.94
2019-06-01T11:27:37.785Z,102193.97
2019-06-01T11:30:10.988Z,102194.38
2019-06-01T11:32:41.877Z,102193.41
2019-06-01T11:35:11.227Z,102186.20
2019-06-01T11:37:40.545Z,102185.93
2019-06-01T11:40:10.020Z,102180.42
2019-06-01T11:42:39.190Z,102184.22
2019-06-01T11:45:07.702Z,102186.03
2019-06-01T11:47:36.923Z,102184.38
2019-06-01T11:50:05.627Z,102185.94
2019-06-01T11:52:34.992Z,102190.27
2019-06-01T11:55:07.288Z,102184.54
2019-06-01T11:57:37.459Z,102181.46
2019-06-01T12:00:14.902Z,102185.28
2019-06-01T12:02:44.068Z,102184.41
2019-06-01T12:05:12.698Z,102182.02
2019-06-01T12:07:42.020Z,102178.98
2019-06-01T12:10:12.351Z,102170.70
2019-06-01T12:12:42.381Z,102177.94
2019-06-01T12:15:12.013Z,102173.09
2019-06-01T12:17:41.162Z,102171.30
2019-06-01T12:20:09.681Z,102166.45
2019-06-01T12:22:38.884Z,102169.63
2019-06-01T12:25:07.297Z,102164.81
2019-06-01T12:27:37.352Z,102163.43
2019-06-01T12:30:07.531Z,102170.02
2019-06-01T12:32:37.841Z,102156.89
2019-06-01T12:35:08.733Z,102160.61
2019-06-01T12:37:56.130Z,102157.38
2019-06-01T12:40:09.494Z,102158.95
2019-06-01T12:42:39.777Z,102154.11
2019-06-01T12:45:12.229Z,102158.29
2019-06-01T12:47:41.881Z,102161.63
2019-06-01T12:50:11.167Z,102156.98
2019-06-01T12:52:40.399Z,102150.75
2019-06-01T12:55:08.846Z,102151.88
2019-06-01T12:57:37.938Z,102151.90
2019-06-01T13:00:06.948Z,102150.56
2019-06-01T13:02:36.239Z,102157.14
2019-06-01T13:05:07.005Z,102143.66
2019-06-01T13:07:50.807Z,102138.47
2019-06-01T13:10:07.833Z,102137.08
2019-06-01T13:12:37.002Z,102137.42
2019-06-01T13:15:06.049Z,102138.98
2019-06-01T13:17:35.217Z,102132.93
2019-06-01T13:20:05.343Z,102138.33
2019-06-01T13:22:34.588Z,102133.66
2019-06-01T13:25:05.292Z,102132.98
2019-06-01T13:27:34.489Z,102125.70
2019-06-01T13:30:04.393Z,102120.02
2019-06-01T13:32:33.487Z,102121.57
2019-06-01T13:35:01.930Z,102110.17
2019-06-01T13:37:31.049Z,102109.47
2019-06-01T13:39:59.503Z,102114.31
2019-06-01T13:42:28.607Z,102106.00
2019-06-01T13:44:57.081Z,102108.41
2019-06-01T13:47:26.188Z,102106.34
2019-06-01T13:49:55.345Z,102106.19
2019-06-01T13:52:23.820Z,102103.93
2019-06-01T13:54:52.913Z,102107.22
2019-06-01T13:57:21.407Z,102106.00
2019-06-01T13:59:50.938Z,102095.97
2019-06-01T14:02:20.172Z,102097.67
2019-06-01T14:04:49.813Z,102094.19
2019-06-01T14:07:19.042Z,102096.45
2019-06-01T14:09:47.493Z,102092.92
2019-06-01T14:12:16.637Z,102094.31
2019-06-01T14:14:45.373Z,102100.77
2019-06-01T14:17:14.483Z,102090.04
2019-06-01T14:19:42.925Z,102091.45
2019-06-01T14:22:12.114Z,102089.02
2019-06-01T14:24:44.602Z,102091.09
2019-06-01T14:27:11.668Z,102090.73
2019-06-01T14:29:40.147Z,102091.94
2019-06-01T14:32:09.302Z,102095.21
2019-06-01T14:34:37.776Z,102092.74
2019-06-01T14:37:06.960Z,102088.25
2019-06-01T14:39:36.130Z,102093.75
2019-06-01T14:42:04.596Z,102077.44
2019-06-01T14:44:33.731Z,102078.45
2019-06-01T14:47:05.985Z,102077.95
2019-06-01T14:49:33.316Z,102073.73
2019-06-01T14:52:02.494Z,102077.37
2019-06-01T14:54:31.657Z,102070.15
2019-06-01T14:57:02.056Z,102071.92
2019-06-01T14:59:32.135Z,102074.37
2019-06-01T15:02:01.278Z,102077.31
2019-06-01T15:04:29.714Z,102068.66
2019-06-01T15:06:58.842Z,102067.63
2019-06-01T15:09:27.312Z,102060.15
2019-06-01T15:11:56.706Z,102062.71
2019-06-01T15:14:26.943Z,102065.98
2019-06-01T15:16:56.322Z,102065.62
2019-06-01T15:19:25.586Z,102061.14
2019-06-01T15:21:56.110Z,102057.02
2019-06-01T15:24:25.506Z,102062.87
2019-06-01T15:26:54.734Z,102060.45
2019-06-01T15:29:23.923Z,102063.38
2019-06-01T15:31:53.084Z,102059.69
2019-06-01T15:34:22.257Z,102062.11
2019-06-01T15:36:51.657Z,102057.61
2019-06-01T15:39:24.965Z,102056.05
2019-06-01T15:41:53.028Z,102052.02
2019-06-01T15:44:22.365Z,102049.92
2019-06-01T15:46:51.652Z,102046.22
2019-06-01T15:49:20.835Z,102040.55
2019-06-01T15:51:50.091Z,102046.47
2019-06-01T15:54:19.264Z,102040.27
2019-06-01T15:56:48.452Z,102036.30
2019-06-01T15:59:17.606Z,102038.08
2019-06-01T16:01:47.149Z,102040.80
2019-06-01T16:04:16.314Z,102033.55
2019-06-01T16:06:45.507Z,102038.08
2019-06-01T16:09:14.678Z,102030.28
2019-06-01T16:11:43.844Z,102028.24
2019-06-01T16:14:13.041Z,102028.19
2019-06-01T16:16:42.201Z,102021.44
2019-06-01T16:19:11.445Z,102024.03
2019-06-01T16:21:40.633Z,102020.05
2019-06-01T16:24:09.888Z,102022.20
2019-06-01T16:26:39.066Z,102022.09
2019-06-01T16:29:08.252Z,102028.41
2019-06-01T16:31:37.532Z,102027.53
2019-06-01T16:34:06.708Z,102019.42
2019-06-01T16:36:35.250Z,102016.36
2019-06-01T16:39:08.084Z,102016.36
2019-06-01T16:41:37.488Z,102018.78
2019-06-01T16:44:06.710Z,102015.68
2019-06-01T16:46:35.863Z,102020.86
2019-06-01T16:49:04.328Z,102018.45
2019-06-01T16:51:56.642Z,102014.63
2019-06-01T16:54:26.337Z,102008.77
2019-06-01T16:56:55.921Z,102010.50
2019-06-01T16:59:25.118Z,102005.48
2019-06-01T17:01:53.762Z,102008.41
2019-06-01T17:04:22.922Z,102010.67
2019-06-01T17:06:51.687Z,102011.00
2019-06-01T17:09:21.531Z,102006.27
2019-06-01T17:11:50.942Z,102005.20
2019-06-01T17:14:20.149Z,102009.28
2019-06-01T17:16:48.603Z,102010.95
2019-06-01T17:19:17.774Z,102004.66
2019-06-01T17:21:46.235Z,102010.79
2019-06-01T17:24:15.329Z,102008.33
2019-06-01T17:26:44.488Z,102007.23
2019-06-01T17:29:13.685Z,102003.07
2019-06-01T17:31:53.953Z,101999.94
2019-06-01T17:34:13.723Z,101996.43
2019-06-01T17:36:42.919Z,102000.72
2019-06-01T17:39:12.274Z,101993.61
2019-06-01T17:41:40.714Z,101990.22
2019-06-01T17:44:09.817Z,101993.47
2019-06-01T17:46:52.954Z,101987.91
2019-06-01T17:49:09.881Z,101985.04
2019-06-01T17:51:39.052Z,101982.58
2019-06-01T17:54:08.462Z,101981.50
2019-06-01T17:56:36.846Z,101977.94
2019-06-01T17:59:06.031Z,101977.88
2019-06-01T18:01:35.195Z,101976.02
2019-06-01T18:04:04.354Z,101972.48
2019-06-01T18:06:33.546Z,101970.36
2019-06-01T18:09:03.796Z,101969.39
2019-06-01T18:11:33.035Z,101969.20
2019-06-01T18:14:02.245Z,101965.03
2019-06-01T18:16:31.568Z,101967.62
2019-06-01T18:19:00.026Z,101965.06
2019-06-01T18:21:29.156Z,101969.87
2019-06-01T18:23:58.313Z,101966.75
2019-06-01T18:26:27.794Z,101961.20
2019-06-01T18:28:56.979Z,101961.14
2019-06-01T18:31:26.418Z,101964.72
2019-06-01T18:33:55.651Z,101959.37
2019-06-01T18:36:24.837Z,101957.28
2019-06-01T18:41:52.223Z,101963.38
2019-06-01T18:44:21.483Z,101961.92
2019-06-01T18:46:50.710Z,101967.03
2019-06-01T18:49:20.057Z,101960.69
2019-06-01T18:51:48.495Z,101965.77
2019-06-01T18:54:17.595Z,101966.07
2019-06-01T18:56:46.773Z,101960.16
2019-06-01T18:59:15.963Z,101955.43
2019-06-01T19:04:13.922Z,101954.28
2019-06-01T19:06:43.096Z,101958.92
2019-06-01T19:09:13.437Z,101956.27
2019-06-01T19:11:42.873Z,101960.50
2019-06-01T19:14:12.045Z,101952.52
2019-06-01T19:16:41.214Z,101951.70
2019-06-01T19:19:10.400Z,101952.52
2019-06-01T19:21:39.571Z,101955.30
2019-06-01T19:24:08.790Z,101956.88
2019-06-01T19:26:37.922Z,101957.77
2019-06-01T19:29:07.099Z,101958.92
2019-06-01T19:31:36.259Z,101964.05
2019-06-01T19:34:06.870Z,101966.70
2019-06-01T19:36:37.925Z,101959.73
2019-06-01T19:39:11.131Z,101956.09
2019-06-01T19:41:44.927Z,101963.38
2019-06-01T19:44:11.494Z,101963.67
2019-06-01T19:46:40.807Z,101969.19
2019-06-01T19:49:11.002Z,101961.00
2019-06-01T19:51:41.536Z,101967.09
2019-06-01T19:54:11.040Z,101964.45
2019-06-01T19:56:39.480Z,101968.70
2019-06-01T19:59:09.764Z,101970.52
2019-06-01T20:01:39.140Z,101969.27
2019-06-01T20:04:08.297Z,101966.33
2019-06-01T20:06:37.474Z,101955.78
2019-06-01T20:09:07.506Z,101952.64
2019-06-01T20:11:36.696Z,101951.45
2019-06-01T20:14:05.880Z,101944.79
2019-06-01T20:16:35.048Z,101952.61
2019-06-01T20:19:04.289Z,101952.53
2019-06-01T20:21:33.473Z,101947.06
2019-06-01T20:24:02.648Z,101948.20
2019-06-01T20:26:42.028Z,101949.30
2019-06-01T20:29:02.981Z,101940.49
2019-06-01T20:31:32.137Z,101937.02
2019-06-01T20:34:01.396Z,101942.86
2019-06-01T20:36:30.761Z,101937.00
2019-06-01T20:39:04.317Z,101933.03
2019-06-01T20:41:31.442Z,101931.80
2019-06-01T20:44:00.624Z,101929.49
2019-06-01T20:46:29.794Z,101939.80
2019-06-01T20:48:58.961Z,101936.41
2019-06-01T20:51:28.417Z,101934.80
2019-06-01T20:53:57.663Z,101925.35
2019-06-01T20:56:26.826Z,101931.64
2019-06-01T20:58:56.004Z,101929.41
2019-06-01T21:01:25.239Z,101931.87
2019-06-01T21:03:54.507Z,101929.59
2019-06-01T21:06:24.035Z,101927.34
2019-06-01T21:08:52.500Z,101922.74
2019-06-01T21:11:22.309Z,101924.35
2019-06-01T21:13:51.561Z,101918.75
2019-06-01T21:16:20.712Z,101925.03
2019-06-01T21:18:49.874Z,101924.52
2019-06-01T21:21:19.052Z,101927.70
2019-06-01T21:23:48.208Z,101918.96
2019-06-01T21:26:18.846Z,101923.16
2019-06-01T21:28:48.143Z,101921.27
2019-06-01T21:31:17.305Z,101921.74
2019-06-01T21:33:46.465Z,101918.84
2019-06-01T21:36:15.641Z,101920.81
2019-06-01T21:38:44.805Z,101923.89
2019-06-01T21:41:15.401Z,101913.83
2019-06-01T21:43:44.620Z,101912.44
2019-06-01T21:46:13.777Z,101913.12
2019-06-01T21:48:42.942Z,101909.88
2019-06-01T21:51:12.124Z,101910.22
2019-06-01T21:53:41.283Z,101915.03
2019-06-01T21:56:10.456Z,101913.64
2019-06-01T21:58:39.626Z,101907.02
2019-06-01T22:01:08.780Z,101904.14
2019-06-01T22:03:37.938Z,101907.09
2019-06-01T22:06:07.167Z,101905.20
2019-06-01T22:08:36.307Z,101904.27
2019-06-01T22:11:05.505Z,101899.01
2019-06-01T22:13:34.680Z,101890.69
2019-06-01T22:16:03.837Z,101885.45
2019-06-01T22:18:33.103Z,101887.05
2019-06-01T22:21:02.280Z,101880.09
2019-06-01T22:23:31.439Z,101875.73
2019-06-01T22:26:00.603Z,101879.52
2019-06-01T22:28:29.768Z,101875.28
2019-06-01T22:30:59.197Z,101870.05
2019-06-01T22:33:28.736Z,101871.27
2019-06-01T22:35:57.295Z,101874.59
2019-06-01T22:38:27.833Z,101875.80
2019-06-01T22:40:56.972Z,101872.28
2019-06-01T22:43:41.193Z,101870.16
2019-06-01T22:45:57.022Z,101864.55
2019-06-01T22:48:26.637Z,101858.95
2019-06-01T22:50:55.126Z,101852.38
2019-06-01T22:53:24.236Z,101853.95
2019-06-01T22:55:53.393Z,101849.49
2019-06-01T22:58:23.257Z,101848.35
2019-06-01T23:00:52.410Z,101848.05
2019-06-01T23:03:21.864Z,101844.19
2019-06-01T23:05:51.027Z,101837.22
2019-06-01T23:08:20.947Z,101840.66
2019-06-01T23:10:50.216Z,101838.16
2019-06-01T23:13:19.388Z,101833.80
2019-06-01T23:15:48.565Z,101829.83
2019-06-01T23:18:17.712Z,101829.41
2019-06-01T23:21:06.217Z,101832.36
2019-06-01T23:23:35.387Z,101831.59
2019-06-01T23:26:04.546Z,101823.43
2019-06-01T23:28:33.715Z,101825.77
2019-06-01T23:31:02.886Z,101833.44
2019-06-01T23:33:33.065Z,101828.11
2019-06-01T23:36:02.292Z,101833.55
2019-06-01T23:38:32.582Z,101824.25
2019-06-01T23:41:02.096Z,101827.46
2019-06-01T23:43:31.275Z,101815.70
2019-06-01T23:46:00.442Z,101821.25
2019-06-01T23:48:29.602Z,101818.64
2019-06-01T23:50:59.100Z,101814.83
2019-06-01T23:53:29.487Z,101807.76
2019-06-01T23:55:58.796Z,101816.41
2019-06-01T23:58:28.089Z,101816.14
